Time;durP1;ratioP1;P1;durP2;ratioP2;P2;SDS_P1;SDS_P2;PMS_P1;PMS_P2;Temp;Humidity;BMP_temperature;BMP_pressure;BME280_temperature;BME280_humidity;BME280_pressure;Samples;Min_cycle;Max_cycle;Signal;HPM_P1;HPM_P2
2023/01/29 00:03:18;;;;;;;12.07;9.80;;;;;;;6.91;51.28;99876.38;7017439;28;20213;-79
2023/01/29 00:06:40;;;;;;;13.23;9.27;;;;;;;6.44;51.97;99845.50;7012478;28;20237;-80
2023/01/29 00:10:01;;;;;;;11.47;10.23;;;;;;;6.63;52.36;99877.47;7008129;28;20288;-79
2023/01/29 00:13:22;;;;;;;11.57;9.50;;;;;;;6.42;52.96;99882.31;7008033;28;20262;-79
2023/01/29 00:16:44;;;;;;;10.20;8.90;;;;;;;6.68;52.69;99889.44;7006879;28;20314;-79
2023/01/29 00:20:08;;;;;;;10.97;9.73;;;;;;;6.48;52.80;99895.94;7007310;28;20272;-80
2023/01/29 00:23:30;;;;;;;10.57;9.47;;;;;;;6.49;52.12;99891.41;7007640;28;20340;-79
2023/01/29 00:26:51;;;;;;;9.63;8.63;;;;;;;6.73;51.38;99892.47;7006588;28;20314;-80
2023/01/29 00:30:17;;;;;;;9.47;8.57;;;;;;;6.71;51.59;99889.09;7005293;28;20342;-80
2023/01/29 00:33:39;;;;;;;11.43;9.97;;;;;;;6.41;51.84;99892.19;7006356;28;20193;-80
2023/01/29 00:37:07;;;;;;;11.60;9.70;;;;;;;6.56;51.96;99879.94;7005802;28;20258;-80
2023/01/29 00:44:56;;;;;;;10.40;9.20;;;;;;;6.22;52.31;99888.78;7006920;28;20218;-80
2023/01/29 00:47:49;;;;;;;10.23;8.83;;;;;;;6.26;51.91;99876.78;7006567;28;20219;-80
2023/01/29 00:51:11;;;;;;;11.07;9.87;;;;;;;6.35;51.89;99878.53;7007109;28;20277;-79
2023/01/29 00:54:34;;;;;;;10.67;8.47;;;;;;;6.43;51.26;99876.78;7005916;28;20242;-79
2023/01/29 00:57:55;;;;;;;11.70;9.50;;;;;;;6.20;52.48;99886.25;7010416;28;20318;-79
2023/01/29 01:03:04;;;;;;;10.40;9.30;;;;;;;6.40;51.32;99860.19;7006245;28;20293;-79
2023/01/29 01:04:57;;;;;;;10.00;8.53;;;;;;;6.36;51.53;99874.91;7005993;28;20213;-79
2023/01/29 01:12:00;;;;;;;8.73;7.80;;;;;;;6.32;51.83;99885.03;7005364;28;20674;-80
2023/01/29 01:15:22;;;;;;;11.83;8.77;;;;;;;6.17;51.58;99867.84;7005704;28;20234;-80
2023/01/29 01:18:44;;;;;;;10.00;8.70;;;;;;;6.19;52.27;99867.69;7006019;28;20316;-79
2023/01/29 01:22:05;;;;;;;8.93;8.03;;;;;;;6.46;51.89;99867.59;7005772;28;20298;-79
2023/01/29 01:25:27;;;;;;;9.00;8.10;;;;;;;6.33;52.35;99880.53;7004855;28;20301;-80
2023/01/29 01:28:50;;;;;;;9.50;8.00;;;;;;;6.13;52.49;99866.44;7004908;28;20314;-80
2023/01/29 01:32:11;;;;;;;8.87;8.00;;;;;;;6.32;51.77;99878.84;7005907;28;20772;-79
2023/01/29 01:35:33;;;;;;;9.60;7.73;;;;;;;6.26;51.85;99871.44;7005290;28;20278;-79
2023/01/29 01:38:54;;;;;;;10.77;8.13;;;;;;;6.22;51.26;99870.03;7005400;28;20237;-79
2023/01/29 01:42:16;;;;;;;9.37;8.37;;;;;;;5.89;52.28;99850.13;7008852;28;20267;-80
2023/01/29 01:45:39;;;;;;;8.00;7.20;;;;;;;6.10;51.74;99885.50;7009849;28;20285;-80
2023/01/29 01:49:03;;;;;;;8.63;7.63;;;;;;;6.02;52.00;99877.34;7010727;28;20592;-80
2023/01/29 01:52:25;;;;;;;9.00;7.93;;;;;;;6.18;51.74;99874.88;7016326;28;20215;-80
2023/01/29 01:55:50;;;;;;;8.87;8.07;;;;;;;6.28;51.00;99838.16;7012373;28;20286;-79
2023/01/29 01:59:14;;;;;;;8.60;7.67;;;;;;;5.85;52.07;99861.28;7012420;28;20311;-79
2023/01/29 02:10:04;;;;;;;11.63;8.17;;;;;;;5.90;51.46;99845.63;7010469;28;20233;-80
2023/01/29 02:13:26;;;;;;;10.40;8.07;;;;;;;6.14;51.94;99883.34;7010580;28;20211;-80
2023/01/29 02:16:48;;;;;;;8.53;7.70;;;;;;;5.98;51.52;99869.78;7009694;28;20650;-80
2023/01/29 02:20:17;;;;;;;8.93;8.13;;;;;;;6.18;51.09;99882.91;7010658;28;20236;-80
2023/01/29 02:23:56;;;;;;;8.87;7.97;;;;;;;5.62;52.55;99873.34;7010700;28;20185;-80
2023/01/29 02:27:21;;;;;;;10.43;8.23;;;;;;;5.76;51.58;99879.03;7010120;28;20698;-80
2023/01/29 02:30:46;;;;;;;8.37;7.57;;;;;;;5.41;52.48;99873.56;7008800;28;20209;-80
2023/01/29 02:34:13;;;;;;;11.60;8.23;;;;;;;5.67;52.36;99877.25;7009788;28;20286;-79
2023/01/29 02:37:38;;;;;;;9.50;8.20;;;;;;;5.61;52.54;99872.47;7008849;28;20271;-80
2023/01/29 02:41:03;;;;;;;8.87;7.80;;;;;;;5.57;52.35;99880.97;7009057;28;20198;-79
2023/01/29 02:44:30;;;;;;;10.97;8.00;;;;;;;5.48;52.81;99871.16;7008361;28;20706;-80
2023/01/29 02:47:57;;;;;;;9.50;8.53;;;;;;;5.58;52.49;99883.50;7008951;28;20356;-79
2023/01/29 02:51:22;;;;;;;11.57;9.10;;;;;;;5.74;52.65;99888.19;7008926;28;20205;-80
2023/01/29 02:54:45;;;;;;;11.57;8.47;;;;;;;5.39;52.49;99893.41;7008638;28;20299;-80
2023/01/29 02:58:12;;;;;;;11.30;8.33;;;;;;;5.36;52.57;99870.47;7009846;28;20229;-80
2023/01/29 03:01:38;;;;;;;9.47;8.53;;;;;;;5.92;52.15;99878.41;7010241;28;20214;-80
2023/01/29 03:05:04;;;;;;;9.00;7.33;;;;;;;5.71;50.96;99877.81;7010257;28;20183;-80
2023/01/29 03:08:36;;;;;;;9.83;8.03;;;;;;;5.56;52.09;99881.94;7011394;28;20884;-79
2023/01/29 03:12:17;;;;;;;9.37;8.23;;;;;;;5.23;52.23;99875.31;7014033;28;20211;-79
2023/01/29 03:15:41;;;;;;;8.83;7.80;;;;;;;5.36;51.88;99878.50;7027539;28;20205;-80
2023/01/29 03:19:06;;;;;;;9.00;8.10;;;;;;;4.98;52.51;99833.19;7028066;28;20239;-80
2023/01/29 03:22:29;;;;;;;9.83;8.33;;;;;;;5.51;52.06;99870.84;7027940;28;20228;-79
2023/01/29 03:33:12;;;;;;;9.23;7.53;;;;;;;5.36;51.65;99867.81;7006452;28;20179;-80
2023/01/29 03:36:38;;;;;;;8.77;7.33;;;;;;;5.85;50.64;99869.31;7006019;28;20316;-79
2023/01/29 03:40:01;;;;;;;9.20;8.30;;;;;;;5.73;50.56;99871.28;7006113;28;20209;-79
2023/01/29 03:43:32;;;;;;;9.53;8.40;;;;;;;5.41;51.83;99862.88;7006546;28;20206;-80
2023/01/29 03:46:56;;;;;;;8.27;7.13;;;;;;;5.42;51.28;99853.84;7005282;28;20217;-80
2023/01/29 03:50:31;;;;;;;7.90;7.10;;;;;;;5.50;51.89;99877.19;7007572;28;20202;-80
2023/01/29 03:53:57;;;;;;;8.83;7.70;;;;;;;5.40;51.39;99876.38;7007297;28;20231;-80
2023/01/29 03:57:29;;;;;;;7.73;6.93;;;;;;;5.43;51.24;99889.47;7005305;28;20721;-79
2023/01/29 04:00:54;;;;;;;9.77;8.03;;;;;;;5.17;52.50;99881.25;7005972;28;20692;-80
2023/01/29 04:04:20;;;;;;;9.53;8.40;;;;;;;5.44;52.08;99869.75;7005053;28;20210;-80
2023/01/29 04:07:42;;;;;;;8.83;7.90;;;;;;;5.26;51.59;99831.41;7005446;28;20254;-80
2023/01/29 04:11:08;;;;;;;8.37;7.57;;;;;;;5.34;51.61;99864.44;7005435;28;20780;-80
2023/01/29 04:14:32;;;;;;;10.73;8.20;;;;;;;5.55;51.23;99880.28;7004767;28;20244;-80
2023/01/29 04:17:56;;;;;;;9.63;8.20;;;;;;;5.60;51.09;99888.69;7005198;28;20241;-80
2023/01/29 04:21:18;;;;;;;9.17;7.10;;;;;;;5.57;50.68;99889.84;7004947;28;20672;-80
2023/01/29 04:24:40;;;;;;;8.17;7.27;;;;;;;5.52;50.56;99859.16;7003919;28;20308;-80
2023/01/29 04:28:07;;;;;;;11.47;7.60;;;;;;;5.41;50.93;99880.72;7003219;28;20305;-80
2023/01/29 04:31:34;;;;;;;8.43;7.53;;;;;;;5.21;51.38;99903.19;7004686;28;20204;-80
2023/01/29 04:35:01;;;;;;;8.43;7.47;;;;;;;5.55;50.94;99891.78;7004413;28;20251;-80
2023/01/29 04:38:28;;;;;;;10.33;7.50;;;;;;;5.53;51.19;99898.28;7004724;28;20297;-80
2023/01/29 04:41:54;;;;;;;8.47;7.17;;;;;;;5.70;51.00;99902.84;7004164;28;20298;-80
2023/01/29 04:45:20;;;;;;;9.67;8.03;;;;;;;5.58;50.62;99882.63;7003712;28;20214;-80
2023/01/29 04:48:51;;;;;;;11.13;7.93;;;;;;;5.70;50.26;99879.63;7004183;28;20312;-80
2023/01/29 04:52:17;;;;;;;9.60;7.83;;;;;;;5.66;50.34;99872.88;7004151;28;20362;-81
2023/01/29 04:55:40;;;;;;;8.90;7.83;;;;;;;5.61;50.51;99874.34;7003393;28;20636;-80
2023/01/29 04:59:05;;;;;;;8.60;7.70;;;;;;;5.68;51.05;99886.97;7006769;28;20395;-80
2023/01/29 05:02:27;;;;;;;9.47;7.67;;;;;;;5.54;51.05;99882.09;7003361;28;20300;-80
2023/01/29 05:05:50;;;;;;;8.60;7.70;;;;;;;5.81;50.86;99892.84;7002856;28;20209;-80
2023/01/29 05:09:13;;;;;;;9.00;7.07;;;;;;;5.40;50.84;99882.59;7003381;28;20336;-80
2023/01/29 05:12:36;;;;;;;8.73;7.70;;;;;;;5.27;50.65;99859.81;7002232;28;20292;-80
2023/01/29 05:16:00;;;;;;;9.20;8.30;;;;;;;5.71;50.50;99875.13;7006402;28;20315;-80
2023/01/29 05:19:22;;;;;;;9.17;7.93;;;;;;;5.43;50.41;99894.81;7008936;28;20359;-80
2023/01/29 05:22:45;;;;;;;10.40;7.83;;;;;;;5.45;50.64;99852.72;7007825;28;20262;-80
2023/01/29 05:26:07;;;;;;;9.07;7.63;;;;;;;5.66;50.23;99878.22;7008123;28;20201;-80
2023/01/29 05:29:27;;;;;;;11.13;8.57;;;;;;;4.95;51.67;99888.75;7009278;28;20312;-80
2023/01/29 05:32:49;;;;;;;11.77;8.20;;;;;;;5.22;50.92;99903.06;7009371;28;20201;-80
2023/01/29 05:36:10;;;;;;;11.13;8.37;;;;;;;5.17;51.81;99902.63;7009146;28;20232;-80
2023/01/29 05:39:33;;;;;;;12.30;8.17;;;;;;;5.29;50.97;99893.44;7008672;28;20298;-80
2023/01/29 05:42:55;;;;;;;10.67;8.07;;;;;;;5.43;51.09;99871.56;7009071;28;20300;-80
2023/01/29 05:46:16;;;;;;;11.50;8.67;;;;;;;5.56;50.98;99879.28;7009179;28;20212;-80
2023/01/29 05:49:38;;;;;;;10.80;9.03;;;;;;;5.57;50.63;99880.97;7009551;28;20366;-80
2023/01/29 05:53:00;;;;;;;11.13;8.63;;;;;;;5.46;51.25;99879.31;7009545;28;20234;-80
2023/01/29 05:56:24;;;;;;;10.63;8.30;;;;;;;5.83;49.92;99857.91;7009341;28;20267;-80
2023/01/29 05:59:45;;;;;;;10.67;8.10;;;;;;;5.54;49.70;99793.00;7009557;28;20225;-80
2023/01/29 06:03:07;;;;;;;9.83;8.13;;;;;;;5.91;49.20;99844.63;7010060;28;20744;-80
2023/01/29 06:06:28;;;;;;;10.00;7.97;;;;;;;5.80;49.45;99840.34;7009153;28;20209;-80
2023/01/29 06:09:50;;;;;;;10.30;8.27;;;;;;;5.18;51.12;99850.03;7008772;28;20292;-80
2023/01/29 06:13:12;;;;;;;10.70;8.63;;;;;;;5.39;50.58;99862.19;7007716;28;20233;-80
2023/01/29 06:16:34;;;;;;;9.33;8.33;;;;;;;4.91;51.32;99780.47;7007138;28;20235;-80
2023/01/29 06:19:55;;;;;;;12.10;8.33;;;;;;;4.93;51.73;99861.31;7007743;28;20233;-80
2023/01/29 06:23:18;;;;;;;11.03;8.73;;;;;;;5.42;50.59;99867.22;7007273;28;20210;-79
2023/01/29 06:26:39;;;;;;;9.43;8.27;;;;;;;5.26;51.06;99868.84;7006618;28;20273;-80
2023/01/29 06:30:02;;;;;;;11.70;8.60;;;;;;;5.16;51.11;99871.53;7007382;28;20394;-80
2023/01/29 06:33:24;;;;;;;10.47;9.27;;;;;;;5.12;51.35;99863.97;7007022;28;20584;-80
2023/01/29 06:36:45;;;;;;;10.60;8.63;;;;;;;4.91;51.70;99865.97;7006436;28;20367;-80
2023/01/29 06:40:08;;;;;;;9.57;7.93;;;;;;;5.20;51.75;99862.22;7007572;28;20229;-80
2023/01/29 06:43:29;;;;;;;10.07;8.10;;;;;;;5.08;51.33;99878.59;7008110;28;20213;-80
2023/01/29 06:46:52;;;;;;;10.93;8.67;;;;;;;5.15;51.08;99880.56;7007879;28;20227;-80
2023/01/29 06:50:14;;;;;;;9.73;8.63;;;;;;;5.36;50.66;99870.47;7007938;28;20256;-80
2023/01/29 06:53:37;;;;;;;10.67;7.80;;;;;;;5.68;50.39;99873.59;7008202;28;20725;-80
2023/01/29 06:56:58;;;;;;;11.07;8.07;;;;;;;4.91;51.52;99874.84;7007788;28;20707;-80
2023/01/29 07:00:20;;;;;;;11.80;9.03;;;;;;;5.02;51.88;99887.19;7009372;28;20317;-81
2023/01/29 07:03:43;;;;;;;10.50;8.60;;;;;;;5.41;50.74;99891.44;7009350;28;20293;-80
2023/01/29 07:07:11;;;;;;;11.83;8.87;;;;;;;5.51;51.03;99885.06;7008146;28;20249;-80
2023/01/29 07:10:33;;;;;;;10.53;8.73;;;;;;;5.10;51.06;99885.50;7009337;28;20206;-80
2023/01/29 07:13:54;;;;;;;16.03;9.33;;;;;;;4.88;51.16;99826.16;7008079;28;20322;-80
2023/01/29 07:17:16;;;;;;;12.70;9.57;;;;;;;5.30;51.67;99884.44;7008300;28;20222;-79
2023/01/29 07:20:40;;;;;;;9.40;8.37;;;;;;;5.11;51.29;99878.28;7007591;28;20316;-79
2023/01/29 07:24:02;;;;;;;10.03;8.23;;;;;;;5.24;51.20;99886.88;7009561;28;20213;-81
2023/01/29 07:27:23;;;;;;;10.87;8.53;;;;;;;5.04;51.16;99904.78;7011818;28;20221;-80
2023/01/29 07:30:45;;;;;;;10.83;8.73;;;;;;;5.32;50.49;99903.84;7012364;28;20690;-81
2023/01/29 07:34:06;;;;;;;10.37;9.27;;;;;;;5.46;50.75;99900.72;7012526;28;20363;-80
2023/01/29 07:37:29;;;;;;;11.00;9.40;;;;;;;5.70;50.50;99906.38;7011246;28;20264;-80
2023/01/29 07:40:51;;;;;;;10.87;9.53;;;;;;;5.52;50.66;99904.63;7015135;28;20210;-80
2023/01/29 07:44:13;;;;;;;10.93;8.53;;;;;;;4.89;52.08;99918.72;7012273;28;20237;-80
2023/01/29 07:47:34;;;;;;;9.80;8.80;;;;;;;4.88;52.17;99911.66;7037062;28;20224;-80
2023/01/29 07:50:57;;;;;;;13.63;9.53;;;;;;;4.90;52.51;99918.56;7041779;28;20264;-80
2023/01/29 07:54:20;;;;;;;15.50;9.03;;;;;;;5.35;51.81;99922.28;7040742;28;20665;-81
2023/01/29 07:57:41;;;;;;;15.20;9.07;;;;;;;5.46;51.20;99929.28;7033215;28;20308;-80
2023/01/29 08:01:05;;;;;;;11.10;9.07;;;;;;;5.39;51.45;99925.50;7013604;28;20248;-80
2023/01/29 08:04:27;;;;;;;11.33;9.23;;;;;;;5.38;51.13;99884.56;7013466;28;20287;-80
2023/01/29 08:07:53;;;;;;;10.50;9.23;;;;;;;5.48;51.09;99906.75;7013827;28;20772;-80
2023/01/29 08:11:16;;;;;;;11.03;9.23;;;;;;;5.10;50.92;99871.28;7013522;28;20194;-81
2023/01/29 08:14:38;;;;;;;10.33;9.13;;;;;;;5.35;51.73;99930.31;7013513;28;20206;-80
2023/01/29 08:18:01;;;;;;;11.80;8.73;;;;;;;5.10;50.72;99892.66;7014383;28;20304;-80
2023/01/29 08:21:22;;;;;;;11.80;8.93;;;;;;;5.41;50.72;99926.19;7014376;28;20610;-80
2023/01/29 08:24:44;;;;;;;9.30;8.03;;;;;;;5.56;50.59;99919.41;7014459;28;20266;-80
2023/01/29 08:28:07;;;;;;;10.67;8.70;;;;;;;5.73;50.63;99932.84;7015252;28;20719;-80
2023/01/29 08:31:28;;;;;;;11.20;8.43;;;;;;;5.43;50.51;99940.28;7016507;28;20214;-79
2023/01/29 08:34:50;;;;;;;11.27;8.80;;;;;;;5.65;49.55;99946.13;7016512;28;20214;-80
2023/01/29 08:38:11;;;;;;;10.17;8.77;;;;;;;5.58;50.76;99934.31;7018370;28;20230;-80
2023/01/29 08:41:33;;;;;;;12.63;9.27;;;;;;;5.46;49.46;99938.16;7011767;28;20209;-80
2023/01/29 08:44:56;;;;;;;10.77;8.70;;;;;;;5.21;50.40;99921.91;7005189;28;20198;-80
2023/01/29 08:48:17;;;;;;;10.50;8.53;;;;;;;4.85;50.85;99931.50;7004205;28;20778;-80
2023/01/29 08:51:39;;;;;;;9.50;8.50;;;;;;;5.37;50.57;99948.88;7005237;28;20305;-80
2023/01/29 08:55:00;;;;;;;11.30;8.70;;;;;;;5.54;50.44;99961.50;7005350;28;20372;-80
2023/01/29 08:58:22;;;;;;;10.57;8.83;;;;;;;5.58;50.28;99955.72;7006687;28;20229;-80
2023/01/29 09:01:44;;;;;;;13.63;10.27;;;;;;;5.96;49.56;99960.94;7003631;28;20788;-80
2023/01/29 09:05:07;;;;;;;19.27;12.13;;;;;;;6.04;49.04;99949.50;7005078;28;20300;-80
2023/01/29 09:08:28;;;;;;;10.93;9.00;;;;;;;6.17;48.82;99953.50;7004869;28;20701;-80
2023/01/29 09:11:50;;;;;;;10.37;8.37;;;;;;;5.96;49.00;99954.75;7004262;28;20259;-81
2023/01/29 09:15:11;;;;;;;15.47;12.00;;;;;;;6.08;48.81;99950.91;7004474;28;20287;-80
2023/01/29 09:18:34;;;;;;;9.67;8.67;;;;;;;6.63;47.41;99955.19;7004181;28;20233;-80
2023/01/29 09:21:56;;;;;;;10.07;9.07;;;;;;;6.15;47.78;99962.69;7003303;28;20273;-80
2023/01/29 09:25:18;;;;;;;38.50;31.43;;;;;;;5.83;48.85;99960.44;7002729;28;20189;-80
2023/01/29 09:28:39;;;;;;;12.27;9.57;;;;;;;6.07;48.19;99966.09;7003119;28;20376;-80
2023/01/29 09:32:01;;;;;;;19.07;16.20;;;;;;;6.23;48.11;99960.09;7003597;28;20234;-80
2023/01/29 09:35:24;;;;;;;14.00;10.57;;;;;;;6.03;48.00;99947.81;7003120;28;20254;-80
2023/01/29 09:38:45;;;;;;;9.90;8.90;;;;;;;5.93;47.76;99968.41;7003852;28;20657;-80
2023/01/29 09:42:10;;;;;;;13.70;10.77;;;;;;;6.07;47.02;99917.91;7004640;28;20234;-80
2023/01/29 09:45:32;;;;;;;14.63;8.57;;;;;;;5.72;47.74;99931.16;7011468;28;20720;-81
2023/01/29 09:48:59;;;;;;;10.27;8.93;;;;;;;5.80;48.02;99941.16;7011522;28;20315;-80
2023/01/29 09:52:25;;;;;;;14.97;12.80;;;;;;;6.13;47.61;99960.16;7012826;28;20206;-80
2023/01/29 09:55:50;;;;;;;17.73;10.20;;;;;;;6.73;47.09;99947.91;7011959;28;20263;-80
2023/01/29 09:59:13;;;;;;;12.50;8.90;;;;;;;6.54;46.97;99916.75;7013813;28;20279;-80
2023/01/29 10:02:54;;;;;;;13.77;8.67;;;;;;;6.90;45.87;99923.78;7019010;28;20253;-80
2023/01/29 10:06:21;;;;;;;9.80;8.80;;;;;;;6.76;45.56;99910.06;7022290;28;20217;-80
2023/01/29 10:10:03;;;;;;;9.43;8.40;;;;;;;7.32;44.96;99903.31;7022958;28;20249;-80
2023/01/29 10:13:30;;;;;;;10.37;8.23;;;;;;;7.34;43.30;99882.56;7022362;28;20221;-80
2023/01/29 10:17:02;;;;;;;11.87;9.23;;;;;;;7.37;44.22;99890.25;7011883;28;20229;-81
2023/01/29 10:20:56;;;;;;;9.70;8.43;;;;;;;7.59;43.43;99887.03;7011169;28;20351;-81
2023/01/29 10:24:24;;;;;;;8.83;7.93;;;;;;;7.21;43.82;99882.13;7010186;28;20283;-80
2023/01/29 10:27:48;;;;;;;9.80;8.40;;;;;;;6.59;44.69;99879.63;7010861;28;20287;-80
2023/01/29 10:31:13;;;;;;;11.10;9.50;;;;;;;7.06;44.46;99886.38;7010528;28;20266;-81
2023/01/29 10:34:39;;;;;;;9.97;8.73;;;;;;;6.31;45.32;99899.44;7009998;28;20302;-79
2023/01/29 10:38:15;;;;;;;10.40;9.17;;;;;;;6.66;45.80;99903.97;7011031;28;20930;-81
2023/01/29 10:41:45;;;;;;;11.77;10.00;;;;;;;7.16;44.59;99897.00;7013761;28;20263;-80
2023/01/29 10:45:19;;;;;;;9.80;8.40;;;;;;;7.61;43.30;99897.63;7010443;28;20331;-81
2023/01/29 10:48:44;;;;;;;9.63;8.63;;;;;;;6.47;44.87;99888.03;7011716;28;20311;-80
2023/01/29 10:52:20;;;;;;;10.67;9.63;;;;;;;5.92;45.96;99889.13;7010958;28;20272;-80
2023/01/29 10:55:49;;;;;;;13.40;10.20;;;;;;;6.38;46.07;99867.53;7011119;28;20252;-80
2023/01/29 10:59:24;;;;;;;11.77;9.37;;;;;;;6.71;45.61;99886.44;7011333;28;20765;-80
2023/01/29 11:02:49;;;;;;;13.40;9.67;;;;;;;6.48;45.46;99889.75;7012321;28;20285;-81
2023/01/29 11:06:17;;;;;;;13.20;9.80;;;;;;;7.42;44.37;99871.84;7011632;28;20210;-81
2023/01/29 11:09:42;;;;;;;13.10;11.63;;;;;;;6.72;45.42;99896.16;7012085;28;20768;-81
2023/01/29 11:13:05;;;;;;;12.40;9.67;;;;;;;6.06;45.54;99824.34;7011596;28;20221;-80
2023/01/29 11:16:27;;;;;;;11.47;9.73;;;;;;;6.72;45.10;99882.75;7011348;28;20228;-81
2023/01/29 11:19:51;;;;;;;13.47;11.73;;;;;;;7.01;45.96;99856.50;7012236;28;20298;-80
2023/01/29 11:23:26;;;;;;;18.43;14.20;;;;;;;7.18;44.71;99869.03;7014210;28;20286;-81
2023/01/29 11:26:49;;;;;;;10.53;9.23;;;;;;;7.19;44.06;99878.75;7014276;28;20234;-81
2023/01/29 11:30:16;;;;;;;14.67;11.43;;;;;;;7.68;43.91;99864.63;7014707;28;20207;-80
2023/01/29 11:33:38;;;;;;;11.10;9.90;;;;;;;6.99;44.42;99853.16;7019237;28;20269;-79
2023/01/29 11:37:02;;;;;;;12.90;11.17;;;;;;;7.01;43.94;99816.28;7014364;28;20267;-80
2023/01/29 11:40:36;;;;;;;14.57;10.33;;;;;;;6.25;45.41;99857.19;7010957;28;20251;-80
2023/01/29 11:43:58;;;;;;;12.67;10.53;;;;;;;6.90;44.51;99846.03;7011067;28;20216;-80
2023/01/29 11:47:22;;;;;;;12.10;10.37;;;;;;;7.17;44.28;99845.03;7010617;28;20659;-81
2023/01/29 11:50:44;;;;;;;10.53;9.53;;;;;;;6.85;44.37;99834.13;7011062;28;20199;-80
2023/01/29 11:54:15;;;;;;;10.87;9.87;;;;;;;6.64;45.22;99847.00;7012507;28;20670;-80
2023/01/29 11:57:38;;;;;;;10.70;9.57;;;;;;;6.91;44.37;99847.75;7010677;28;20259;-80
2023/01/29 12:01:00;;;;;;;12.40;10.30;;;;;;;6.69;44.43;99847.38;7010338;28;20295;-80
2023/01/29 12:04:24;;;;;;;12.80;9.40;;;;;;;6.36;45.52;99840.06;7009147;28;20204;-80
2023/01/29 12:07:48;;;;;;;11.37;10.13;;;;;;;7.69;42.74;99815.31;7017622;28;20248;-81
2023/01/29 12:11:13;;;;;;;12.07;9.90;;;;;;;6.98;43.97;99815.75;7010603;28;20213;-80
2023/01/29 12:14:34;;;;;;;11.30;9.63;;;;;;;7.24;44.16;99801.34;7008248;28;20289;-80
2023/01/29 12:18:05;;;;;;;11.47;10.20;;;;;;;7.75;42.84;99790.50;7008083;28;20232;-80
2023/01/29 12:21:31;;;;;;;12.00;10.10;;;;;;;7.60;42.16;99761.75;7007047;28;20216;-80
2023/01/29 12:24:56;;;;;;;10.93;9.80;;;;;;;7.08;43.51;99696.66;7007224;28;20183;-80
2023/01/29 12:28:39;;;;;;;12.73;9.80;;;;;;;8.15;42.26;99763.72;7009506;28;20318;-80
2023/01/29 12:32:07;;;;;;;12.23;10.23;;;;;;;7.64;43.30;99741.63;7010293;28;20230;-80
2023/01/29 12:35:31;;;;;;;11.53;10.27;;;;;;;7.77;42.34;99737.47;7012357;28;20305;-80
2023/01/29 12:38:52;;;;;;;11.63;10.37;;;;;;;7.54;43.04;99728.34;7011039;28;20318;-80
2023/01/29 12:42:17;;;;;;;11.03;9.27;;;;;;;7.77;43.33;99720.53;7031381;28;20224;-80
2023/01/29 12:45:41;;;;;;;11.90;10.30;;;;;;;7.59;42.64;99698.34;7037775;28;20260;-80
2023/01/29 12:49:04;;;;;;;11.73;10.23;;;;;;;7.81;43.54;99711.13;7039604;28;20243;-80
2023/01/29 12:52:37;;;;;;;13.13;10.73;;;;;;;8.43;41.98;99714.03;7037761;28;20265;-81
2023/01/29 12:56:00;;;;;;;10.50;9.40;;;;;;;8.66;41.28;99708.81;7037065;28;20316;-80
2023/01/29 12:59:27;;;;;;;12.43;10.00;;;;;;;8.61;41.98;99701.22;7038525;28;20722;-80
2023/01/29 13:02:55;;;;;;;11.60;9.30;;;;;;;8.51;40.93;99699.75;7039131;28;20216;-80
2023/01/29 13:06:18;;;;;;;10.67;9.17;;;;;;;7.95;42.22;99703.25;7039607;28;20260;-80
2023/01/29 13:09:43;;;;;;;10.17;9.17;;;;;;;8.24;41.70;99690.19;7040843;28;20223;-81
2023/01/29 13:13:11;;;;;;;11.10;8.43;;;;;;;8.59;40.82;99687.13;7039808;28;20270;-80
2023/01/29 13:16:36;;;;;;;13.03;8.57;;;;;;;8.75;40.80;99680.88;7039106;28;20756;-80
2023/01/29 13:20:02;;;;;;;10.63;9.50;;;;;;;8.38;41.36;99677.94;7040017;28;20321;-80
2023/01/29 13:23:30;;;;;;;12.43;10.10;;;;;;;8.47;41.20;99687.66;7037599;28;20192;-81
2023/01/29 13:26:52;;;;;;;10.67;9.40;;;;;;;8.26;41.93;99679.31;7037145;28;20286;-80
2023/01/29 13:30:27;;;;;;;15.23;11.67;;;;;;;8.27;41.96;99687.19;7037390;28;20240;-80
2023/01/29 13:33:54;;;;;;;10.90;9.63;;;;;;;7.84;42.40;99662.50;7039477;28;20215;-80
2023/01/29 13:37:23;;;;;;;12.97;10.23;;;;;;;8.47;42.00;99687.66;7041100;28;20746;-80
2023/01/29 13:40:49;;;;;;;10.77;9.67;;;;;;;8.10;41.99;99631.78;7044991;28;20299;-80
2023/01/29 13:44:21;;;;;;;11.20;8.80;;;;;;;8.51;41.68;99680.94;7043648;28;20650;-80
2023/01/29 13:47:42;;;;;;;10.93;9.17;;;;;;;8.87;41.40;99679.50;7042063;28;20328;-80
2023/01/29 13:51:14;;;;;;;10.50;9.50;;;;;;;8.78;40.30;99659.03;7042357;28;20258;-80
2023/01/29 13:54:37;;;;;;;10.23;8.67;;;;;;;8.97;40.52;99683.69;7042690;28;20191;-80
2023/01/29 13:57:59;;;;;;;10.00;9.00;;;;;;;8.67;41.23;99681.72;7045178;28;20238;-80
2023/01/29 14:01:54;;;;;;;12.23;9.33;;;;;;;8.55;41.82;99684.97;7045356;28;20270;-80
2023/01/29 14:05:56;;;;;;;12.10;9.60;;;;;;;8.35;41.48;99673.75;7045612;28;20199;-81
2023/01/29 14:09:49;;;;;;;11.03;9.87;;;;;;;8.87;40.91;99682.19;6971624;28;20228;-81
2023/01/29 14:13:27;;;;;;;17.10;12.20;;;;;;;8.84;40.76;99686.06;7045983;28;20215;-81
2023/01/29 14:16:49;;;;;;;12.60;9.07;;;;;;;8.46;41.71;99675.22;7046125;28;20231;-81
2023/01/29 14:20:19;;;;;;;10.93;9.60;;;;;;;8.46;41.97;99681.47;7046410;28;20314;-81
2023/01/29 14:23:43;;;;;;;13.47;10.53;;;;;;;7.45;42.91;99580.94;7046032;28;20252;-81
2023/01/29 14:27:05;;;;;;;15.37;10.17;;;;;;;7.44;43.10;99659.75;7047241;28;20226;-81
2023/01/29 14:30:30;;;;;;;12.83;11.53;;;;;;;7.51;44.35;99680.41;7046598;28;20286;-81
2023/01/29 14:33:52;;;;;;;12.57;11.10;;;;;;;6.92;44.30;99634.97;7047729;28;20214;-80
2023/01/29 14:37:22;;;;;;;11.37;9.50;;;;;;;7.13;44.51;99675.56;7039393;28;20328;-80
2023/01/29 14:40:45;;;;;;;13.33;11.00;;;;;;;7.81;44.00;99663.66;7043122;28;20226;-80
2023/01/29 14:44:43;;;;;;;11.73;10.53;;;;;;;7.44;43.74;99671.34;7023155;28;20203;-80
2023/01/29 14:48:20;;;;;;;11.97;10.77;;;;;;;7.27;44.48;99688.38;6997780;28;20226;-80
2023/01/29 14:51:44;;;;;;;12.67;10.33;;;;;;;7.47;43.62;99654.88;7011744;28;20228;-81
2023/01/29 14:55:07;;;;;;;16.17;11.70;;;;;;;7.94;43.77;99666.69;7005846;28;20288;-82
2023/01/29 14:58:36;;;;;;;16.60;12.77;;;;;;;7.78;43.76;99661.28;7005808;28;20318;-81
2023/01/29 15:02:02;;;;;;;19.63;17.70;;;;;;;8.09;43.40;99667.69;7005336;28;20210;-81
2023/01/29 15:05:29;;;;;;;13.87;11.07;;;;;;;8.08;43.06;99673.22;7005339;28;20218;-80
2023/01/29 15:08:55;;;;;;;15.03;12.00;;;;;;;7.89;43.31;99674.41;7005192;28;20529;-81
2023/01/29 15:12:24;;;;;;;15.83;11.10;;;;;;;8.17;42.81;99667.69;7005644;28;20268;-80
2023/01/29 15:15:47;;;;;;;13.83;11.63;;;;;;;8.14;43.01;99656.44;7006199;28;20205;-80
2023/01/29 15:19:15;;;;;;;12.60;11.30;;;;;;;8.41;42.56;99662.31;7005571;28;20223;-81
2023/01/29 15:22:43;;;;;;;16.40;11.70;;;;;;;8.07;42.63;99628.59;7007079;28;20347;-81
2023/01/29 15:26:07;;;;;;;14.67;11.23;;;;;;;7.42;43.39;99533.00;7008754;28;20216;-80
2023/01/29 15:29:29;;;;;;;16.63;12.13;;;;;;;8.02;42.83;99637.13;7009471;28;20235;-81
2023/01/29 15:32:51;;;;;;;14.23;11.57;;;;;;;7.87;43.88;99654.09;7009187;28;20230;-80
2023/01/29 15:36:19;;;;;;;14.87;10.97;;;;;;;7.79;43.73;99670.19;7009217;28;20740;-81
2023/01/29 15:39:43;;;;;;;16.73;11.90;;;;;;;7.47;44.16;99660.25;7010744;28;20281;-81
2023/01/29 15:43:19;;;;;;;14.67;11.13;;;;;;;7.39;44.26;99672.81;7012329;28;20230;-80
2023/01/29 15:46:41;;;;;;;14.60;11.80;;;;;;;7.68;44.38;99673.19;7011149;28;20269;-81
2023/01/29 15:50:04;;;;;;;17.80;11.77;;;;;;;7.61;44.05;99670.31;7011926;28;20258;-80
2023/01/29 15:53:36;;;;;;;21.37;12.93;;;;;;;7.62;43.81;99626.41;7012503;28;20281;-80
2023/01/29 15:56:59;;;;;;;14.53;11.57;;;;;;;8.06;43.83;99676.06;7012812;28;20756;-80
2023/01/29 16:00:23;;;;;;;13.43;11.27;;;;;;;7.59;45.01;99656.25;7013689;28;20222;-80
2023/01/29 16:03:47;;;;;;;16.10;11.13;;;;;;;7.01;46.18;99630.47;7013902;28;20215;-80
2023/01/29 16:07:09;;;;;;;14.67;11.13;;;;;;;7.44;45.61;99649.00;7012576;28;20250;-80
2023/01/29 16:10:32;;;;;;;14.00;10.97;;;;;;;6.12;48.46;99658.63;7012388;28;20272;-80
2023/01/29 16:13:55;;;;;;;15.17;12.17;;;;;;;6.29;48.25;99655.06;7008815;28;20218;-80
2023/01/29 16:17:25;;;;;;;14.97;11.30;;;;;;;6.77;46.97;99654.50;7008141;28;20901;-80
2023/01/29 16:20:50;;;;;;;23.87;16.87;;;;;;;6.84;46.45;99653.69;7006994;28;20587;-80
2023/01/29 16:24:14;;;;;;;23.03;16.70;;;;;;;6.94;46.28;99661.59;7007608;28;20331;-80
2023/01/29 16:27:36;;;;;;;22.97;14.47;;;;;;;5.73;48.94;99659.94;7006302;28;20230;-80
2023/01/29 16:31:00;;;;;;;18.10;15.27;;;;;;;5.27;50.40;99678.88;7006961;28;20675;-80